ADDS METAR Data INFO
IDs: Format: Raw Decoded Include TAF

Data at: 2031 UTC 16 Dec 2017

KBFM 161953Z AUTO 00000KT 10SM CLR 14/M01 A3023 RMK AO2 SLP236 T01441006
KBFM 161853Z 04004KT 10SM CLR 13/01 A3025 RMK AO2 SLP243 T01280006
KBFM 161753Z 03004KT 10SM CLR 11/01 A3029 RMK AO2 SLP255 T01060006 10111 20061 58017
KBFM 161653Z 03007KT 10SM CLR 09/01 A3032 RMK AO2 SLP267 T00940006
KBFM 161553Z 04007KT 10SM OVC110 08/01 A3034 RMK AO2 SLP272 T00830006
KBFM 161453Z 06006KT 10SM OVC110 07/00 A3034 RMK AO2 SLP272 T00670000 51013
KBFM 161353Z 06007KT 10SM OVC110 07/00 A3033 RMK AO2 SLP270 T00670000
KBFM 161253Z 03006KT 10SM OVC110 06/00 A3032 RMK AO2 SLP265 T00610000
KBFM 161153Z 03008KT 10SM OVC110 06/00 A3030 RMK AO2 SLP260 T00610000 10067 20056 53009
KBFM 161053Z 03007KT 10SM OVC110 06/00 A3027 RMK AO2 SLP251 T00610000
KBFM 160953Z AUTO 02011KT 10SM OVC110 06/00 A3027 RMK AO2 SLP250 T00610000
KBFM 160853Z AUTO 02010KT 10SM OVC120 06/M01 A3027 RMK AO2 SLP251 T00611006 55002
KBFM 160753Z AUTO 02010KT 10SM SCT120 06/M01 A3027 RMK AO2 SLP250 T00611006
KBFM 160653Z AUTO 01005KT 10SM BKN110 06/00 A3028 RMK AO2 SLP253 T00610000
KBFM 160553Z AUTO 36007KT 10SM CLR 06/00 A3028 RMK AO2 SLP253 T00610000 10089 20061 401110061 50003
KBFM 160453Z AUTO 35007KT 10SM CLR 07/01 A3028 RMK AO2 SLP253 T00670006
KBFM 160353Z 35009KT 10SM CLR 07/00 A3027 RMK AO2 SLP251 T00720000
KBFM 160253Z 35009KT 10SM CLR 08/00 A3027 RMK AO2 SLP250 T00780000 51017
KBFM 160153Z 35011KT 10SM CLR 08/00 A3025 RMK AO2 SLP244 T00780000
KBFM 160053Z 35007KT 10SM SCT120 08/00 A3024 RMK AO2 SLP241 T00830000
KBFM 152353Z 35009KT 10SM OVC070 09/01 A3022 RMK AO2 SLP233 60000 T00890006 10106 20089 51015
KBFM 152253Z 36008KT 10SM FEW070 09/00 A3022 RMK AO2 SLP232 T00890000
KBFM 152153Z 36007KT 10SM OVC110 09/01 A3020 RMK AO2 RAB20E37 SLP227 P0000 T00940011
KBFM 152053Z 35007KT 10SM SCT085 BKN120 10/02 A3018 RMK AO2 SLP218 60000 T01000017 55010
KBFM 151953Z 35009KT 10SM OVC110 10/02 A3017 RMK AO2 RAB1854E20 SLP215 P0000 T01000017
KBFM 151853Z 33012KT 10SM OVC100 10/02 A3021 RMK AO2 SLP228 T01000017
KBFM 151753Z 34010KT 10SM FEW075 OVC100 10/03 A3020 RMK AO2 RAE28 PRESFR SLP227 P0000 60000 T01000028 10100 20083 50005
KBFM 151653Z 35009KT 7SM -RA FEW055 OVC110 09/03 A3022 RMK AO2 RAB21 SLP234 P0000 T00890033
KBFM 151553Z 35009KT 10SM FEW075 OVC100 09/03 A3022 RMK AO2 SLP231 T00890033
KBFM 151453Z 36010KT 10SM OVC110 08/03 A3019 RMK AO2 SLP222 T00830033 53034
KBFM 151353Z 35012KT 10SM CLR 08/04 A3015 RMK AO2 SLP210 T00830044
KBFM 151253Z 34009KT 10SM FEW050 09/06 A3011 RMK AO2 SLP196 T00890056
KBFM 151153Z 33010KT 10SM CLR 10/06 A3009 RMK AO2 SLP188 T01000061 10111 20078 53011
KBFM 151053Z 33009KT 10SM FEW055 11/07 A3006 RMK AO2 SLP179 T01060067
KBFM 150953Z 34003KT 10SM CLR 10/08 A3005 RMK AO2 SLP174 T01000083
KBFM 150921Z 30003KT 10SM CLR 11/08 A3006 RMK AO2 T01060083
KBFM 150853Z AUTO 00000KT 10SM CLR 10/09 A3006 RMK AO2 SLP177 T01000089 50003